createdAt,value
2022-12-23T00:00:27.303Z,92.40
2022-12-23T00:02:54.432Z,92.40
2022-12-23T00:05:21.300Z,92.40
2022-12-23T00:07:48.069Z,92.40
2022-12-23T00:10:14.823Z,92.40
2022-12-23T00:12:41.514Z,92.40
2022-12-23T00:15:08.956Z,92.40
2022-12-23T00:17:45.252Z,92.40
2022-12-23T00:20:13.409Z,92.40
2022-12-23T00:22:40.522Z,92.40
2022-12-23T00:25:07.570Z,92.30
2022-12-23T00:27:37.563Z,92.30
2022-12-23T00:30:08.815Z,92.30
2022-12-23T00:32:35.613Z,92.30
2022-12-23T00:35:02.446Z,92.30
2022-12-23T00:37:30.909Z,92.30
2022-12-23T00:40:02.601Z,92.30
2022-12-23T00:42:32.718Z,92.30
2022-12-23T00:44:59.459Z,92.20
2022-12-23T00:47:26.142Z,92.30
2022-12-23T00:49:52.881Z,92.30
2022-12-23T00:52:19.606Z,92.30
2022-12-23T00:54:46.337Z,92.20
2022-12-23T00:57:13.087Z,92.30
2022-12-23T00:59:39.815Z,92.20
2022-12-23T01:02:06.769Z,92.20
2022-12-23T01:04:33.842Z,92.20
2022-12-23T01:07:02.812Z,92.30
2022-12-23T01:09:31.529Z,92.30
2022-12-23T01:11:59.173Z,92.20
2022-12-23T01:14:26.009Z,92.20
2022-12-23T01:16:55.730Z,92.20
2022-12-23T01:19:25.847Z,92.60
2022-12-23T01:21:52.691Z,92.20
2022-12-23T01:24:19.388Z,92.20
2022-12-23T01:26:46.269Z,92.20
2022-12-23T01:29:13.121Z,92.20
2022-12-23T01:31:39.926Z,92.20
2022-12-23T01:34:06.840Z,92.30
2022-12-23T01:36:33.600Z,92.20
2022-12-23T01:39:00.290Z,92.20
2022-12-23T01:41:29.406Z,92.20
2022-12-23T01:43:56.075Z,92.20
2022-12-23T01:46:22.938Z,92.20
2022-12-23T01:48:50.918Z,92.20
2022-12-23T01:51:28.666Z,92.20
2022-12-23T01:53:58.143Z,92.20
2022-12-23T01:56:29.567Z,92.20
2022-12-23T01:59:10.659Z,92.20
2022-12-23T02:01:37.495Z,92.20
2022-12-23T02:04:06.796Z,92.20
2022-12-23T02:06:35.099Z,92.20
2022-12-23T02:09:01.898Z,92.20
2022-12-23T02:11:51.410Z,92.20
2022-12-23T02:14:33.328Z,92.20
2022-12-23T02:17:18.594Z,92.20
2022-12-23T02:19:57.313Z,92.20
2022-12-23T02:23:01.553Z,92.20
2022-12-23T02:25:37.538Z,92.20
2022-12-23T02:28:42.062Z,92.20
2022-12-23T02:31:24.062Z,92.20
2022-12-23T02:34:15.671Z,92.20
2022-12-23T02:36:58.088Z,92.20
2022-12-23T02:39:36.666Z,92.20
2022-12-23T02:42:16.540Z,92.20
2022-12-23T02:45:04.935Z,92.30
2022-12-23T02:47:50.485Z,92.30
2022-12-23T02:50:19.980Z,92.20
2022-12-23T02:52:47.052Z,92.20
2022-12-23T02:55:19.654Z,92.20
2022-12-23T02:57:47.873Z,92.20
2022-12-23T03:00:14.906Z,92.20
2022-12-23T03:02:41.989Z,92.20
2022-12-23T03:05:27.609Z,92.20
2022-12-23T03:07:56.817Z,92.20
2022-12-23T03:10:26.496Z,92.20
2022-12-23T03:12:56.540Z,92.20
2022-12-23T03:15:52.020Z,92.20
2022-12-23T03:18:26.675Z,92.20
2022-12-23T03:21:22.622Z,92.20
2022-12-23T03:24:09.661Z,92.20
2022-12-23T03:26:40.703Z,92.20
2022-12-23T03:29:35.370Z,92.20
2022-12-23T03:32:02.088Z,92.20
2022-12-23T03:34:31.227Z,92.20
2022-12-23T03:36:59.042Z,92.20
2022-12-23T03:39:32.133Z,92.20
2022-12-23T03:42:26.561Z,92.20
2022-12-23T03:45:27.864Z,92.20
2022-12-23T03:47:43.735Z,92.20
2022-12-23T03:50:11.898Z,92.20
2022-12-23T03:53:16.820Z,92.20
2022-12-23T03:55:48.367Z,92.30
2022-12-23T03:58:43.544Z,92.20
2022-12-23T04:01:26.003Z,92.20
2022-12-23T04:04:06.407Z,92.20
2022-12-23T04:06:47.019Z,92.30
2022-12-23T04:09:19.851Z,92.20
2022-12-23T04:11:48.531Z,92.20
2022-12-23T04:14:18.760Z,92.20
2022-12-23T04:16:46.512Z,92.10
2022-12-23T04:19:13.205Z,92.10
2022-12-23T04:21:39.949Z,92.10
2022-12-23T04:24:06.745Z,92.10
2022-12-23T04:26:33.527Z,92.10
2022-12-23T04:29:00.247Z,92.10
2022-12-23T04:31:27.029Z,92.10
2022-12-23T04:34:02.941Z,92.00
2022-12-23T04:36:29.777Z,92.20
2022-12-23T04:38:56.483Z,92.10
2022-12-23T04:41:23.176Z,92.10
2022-12-23T04:43:53.046Z,92.10
2022-12-23T04:46:20.288Z,92.10
2022-12-23T04:48:47.008Z,92.10
2022-12-23T04:51:13.842Z,92.10
2022-12-23T04:53:40.570Z,92.10
2022-12-23T04:56:07.341Z,92.10
2022-12-23T04:58:34.041Z,92.00
2022-12-23T05:01:08.423Z,92.00
2022-12-23T05:03:35.528Z,92.00
2022-12-23T05:06:02.426Z,92.00
2022-12-23T05:08:29.229Z,92.00
2022-12-23T05:10:56.225Z,92.00
2022-12-23T05:13:22.915Z,92.00
2022-12-23T05:15:50.569Z,92.00
2022-12-23T05:18:17.357Z,92.00
2022-12-23T05:20:44.142Z,91.90
2022-12-23T05:23:10.865Z,91.90
2022-12-23T05:25:38.207Z,91.90
2022-12-23T05:28:05.530Z,91.90
2022-12-23T05:30:32.301Z,91.90
2022-12-23T05:32:59.021Z,91.90
2022-12-23T05:35:26.220Z,91.90
2022-12-23T05:37:53.106Z,91.90
2022-12-23T05:40:23.442Z,91.90
2022-12-23T05:42:51.863Z,91.90
2022-12-23T05:45:18.975Z,91.90
2022-12-23T05:47:45.643Z,91.90
2022-12-23T05:50:12.396Z,91.90
2022-12-23T05:52:39.119Z,91.90
2022-12-23T05:55:06.337Z,91.90
2022-12-23T05:57:33.027Z,91.90
2022-12-23T05:59:59.717Z,91.90
2022-12-23T06:02:26.608Z,91.90
2022-12-23T06:04:53.431Z,91.90
2022-12-23T06:07:20.108Z,91.90
2022-12-23T06:09:46.832Z,91.90
2022-12-23T06:12:13.651Z,91.90
2022-12-23T06:14:40.342Z,91.90
2022-12-23T06:17:07.103Z,91.90
2022-12-23T06:19:33.941Z,91.90
2022-12-23T06:22:00.620Z,91.90
2022-12-23T06:24:27.301Z,91.90
2022-12-23T06:26:57.220Z,91.90
2022-12-23T06:29:24.515Z,91.90
2022-12-23T06:31:51.253Z,91.90
2022-12-23T06:34:18.097Z,91.90
2022-12-23T06:36:44.817Z,91.90
2022-12-23T06:39:11.619Z,91.90
2022-12-23T06:41:38.294Z,91.90
2022-12-23T06:44:05.206Z,91.90
2022-12-23T06:46:32.167Z,91.90
2022-12-23T06:48:58.968Z,91.90
2022-12-23T06:51:25.683Z,91.90
2022-12-23T06:53:52.457Z,91.90
2022-12-23T06:56:19.194Z,91.90
2022-12-23T06:58:45.918Z,91.90
2022-12-23T07:01:12.796Z,91.90
2022-12-23T07:03:39.617Z,91.90
2022-12-23T07:06:06.825Z,91.90
2022-12-23T07:08:33.635Z,91.90
2022-12-23T07:11:00.612Z,91.90
2022-12-23T07:13:27.394Z,92.00
2022-12-23T07:15:54.086Z,92.00
2022-12-23T07:18:22.420Z,92.00
2022-12-23T07:20:49.866Z,92.00
2022-12-23T07:23:16.623Z,92.00
2022-12-23T07:25:43.348Z,92.00
2022-12-23T07:28:10.049Z,92.00
2022-12-23T07:30:36.879Z,92.00
2022-12-23T07:33:03.597Z,92.00
2022-12-23T07:35:30.261Z,92.00
2022-12-23T07:37:56.943Z,92.00
2022-12-23T07:40:24.221Z,92.10
2022-12-23T07:42:55.403Z,92.10
2022-12-23T07:45:22.169Z,92.10
2022-12-23T07:47:52.935Z,92.10
2022-12-23T07:50:19.614Z,92.10
2022-12-23T07:52:46.437Z,92.00
2022-12-23T07:55:13.143Z,92.10
2022-12-23T07:57:39.840Z,92.10
2022-12-23T08:00:11.131Z,92.00
2022-12-23T08:02:38.007Z,92.10
2022-12-23T08:05:05.362Z,92.00
2022-12-23T08:07:32.125Z,92.10
2022-12-23T08:09:58.849Z,92.00
2022-12-23T08:12:25.816Z,92.00
2022-12-23T08:14:52.602Z,92.00
2022-12-23T08:17:20.339Z,92.10
2022-12-23T08:19:50.354Z,92.10
2022-12-23T08:22:17.128Z,92.10
2022-12-23T08:24:43.837Z,92.00
2022-12-23T08:27:10.739Z,92.10
2022-12-23T08:29:38.731Z,92.10
2022-12-23T08:32:05.890Z,92.10
2022-12-23T08:34:32.647Z,92.10
2022-12-23T08:36:59.450Z,92.10
2022-12-23T08:39:26.145Z,92.10
2022-12-23T08:41:52.939Z,92.10
2022-12-23T08:44:19.782Z,92.10
2022-12-23T08:46:46.584Z,92.10
2022-12-23T08:49:13.442Z,92.10
2022-12-23T08:51:40.165Z,92.10
2022-12-23T08:54:06.955Z,92.10
2022-12-23T08:56:35.331Z,92.10
2022-12-23T08:59:02.289Z,92.20
2022-12-23T09:01:31.592Z,92.20
2022-12-23T09:03:58.561Z,92.20
2022-12-23T09:06:29.802Z,92.10
2022-12-23T09:08:57.455Z,92.10
2022-12-23T09:11:25.285Z,92.10
2022-12-23T09:13:52.044Z,92.10
2022-12-23T09:16:18.924Z,92.10
2022-12-23T09:18:45.626Z,92.10
2022-12-23T09:21:17.030Z,92.20
2022-12-23T09:23:43.744Z,92.20
2022-12-23T09:26:12.008Z,92.20
2022-12-23T09:28:39.677Z,92.10
2022-12-23T09:31:07.660Z,92.10
2022-12-23T09:33:34.561Z,92.10
2022-12-23T09:36:01.691Z,92.10
2022-12-23T09:38:28.505Z,92.10
2022-12-23T09:41:02.360Z,92.10
2022-12-23T09:44:01.819Z,92.20
2022-12-23T09:46:29.114Z,92.20
2022-12-23T09:49:01.361Z,92.20
2022-12-23T09:51:28.084Z,92.30
2022-12-23T09:54:03.308Z,92.30
2022-12-23T09:57:01.059Z,92.30
2022-12-23T09:59:55.191Z,92.30
2022-12-23T10:02:42.953Z,92.30
2022-12-23T10:05:16.020Z,92.30
2022-12-23T10:07:45.577Z,92.30
2022-12-23T10:10:37.548Z,92.20
2022-12-23T10:13:05.352Z,92.20
2022-12-23T10:15:41.359Z,92.20
2022-12-23T10:18:16.671Z,92.20
2022-12-23T10:20:47.373Z,92.20
2022-12-23T10:23:17.236Z,92.20
2022-12-23T10:25:49.283Z,92.20
2022-12-23T10:28:16.006Z,92.30
2022-12-23T10:31:10.560Z,92.30
2022-12-23T10:33:36.093Z,92.20
2022-12-23T10:36:20.815Z,92.10
2022-12-23T10:39:08.050Z,92.10
2022-12-23T10:42:08.731Z,92.10
2022-12-23T10:44:49.956Z,92.20
2022-12-23T10:47:44.128Z,92.20
2022-12-23T10:50:35.249Z,92.20
2022-12-23T10:53:04.142Z,92.20
2022-12-23T10:55:35.457Z,92.20
2022-12-23T10:58:14.978Z,92.20
2022-12-23T11:00:43.739Z,92.20
2022-12-23T11:03:16.380Z,92.20
2022-12-23T11:05:43.193Z,92.20
2022-12-23T11:08:09.921Z,92.20
2022-12-23T11:10:36.713Z,92.20
2022-12-23T11:13:03.519Z,92.20
2022-12-23T11:15:34.352Z,92.10
2022-12-23T11:18:07.792Z,92.10
2022-12-23T11:20:35.212Z,92.00
2022-12-23T11:23:02.891Z,92.10
2022-12-23T11:25:31.066Z,92.10
2022-12-23T11:28:04.098Z,92.10
2022-12-23T11:30:32.205Z,92.00
2022-12-23T11:32:59.186Z,92.40
2022-12-23T11:35:29.038Z,92.10
2022-12-23T11:37:56.555Z,92.10
2022-12-23T11:40:24.745Z,92.10
2022-12-23T11:42:56.995Z,92.20
2022-12-23T11:45:25.691Z,92.10
2022-12-23T11:47:52.417Z,91.90
2022-12-23T11:50:28.329Z,91.60
2022-12-23T11:53:22.643Z,91.50
2022-12-23T11:56:04.504Z,91.30
2022-12-23T11:58:33.907Z,91.30
2022-12-23T12:01:01.213Z,91.20
2022-12-23T12:03:30.956Z,91.20
2022-12-23T12:06:06.976Z,91.10
2022-12-23T12:08:37.604Z,91.10
2022-12-23T12:11:15.556Z,91.10
2022-12-23T12:13:43.356Z,91.10
2022-12-23T12:16:31.345Z,91.10
2022-12-23T12:19:04.499Z,91.00
2022-12-23T12:21:33.518Z,91.00
2022-12-23T12:24:19.036Z,91.10
2022-12-23T12:26:47.793Z,91.20
2022-12-23T12:29:45.391Z,91.30
2022-12-23T12:32:27.793Z,91.20
2022-12-23T12:35:00.745Z,91.20
2022-12-23T12:37:36.440Z,91.30
2022-12-23T12:40:30.864Z,91.40
2022-12-23T12:43:24.606Z,91.50
2022-12-23T12:46:23.416Z,91.60
2022-12-23T12:49:05.666Z,91.70
2022-12-23T12:51:47.009Z,91.60
2022-12-23T12:54:15.950Z,91.60
2022-12-23T12:56:50.485Z,91.50
2022-12-23T12:59:18.410Z,91.40
2022-12-23T13:02:21.449Z,91.40
2022-12-23T13:05:06.276Z,91.20
2022-12-23T13:07:39.640Z,91.30
2022-12-23T13:10:33.503Z,91.30
2022-12-23T13:13:18.587Z,91.30
2022-12-23T13:15:55.735Z,91.40
2022-12-23T13:18:36.702Z,91.50
2022-12-23T13:22:04.794Z,91.40
2022-12-23T13:25:05.010Z,91.40
2022-12-23T13:27:44.225Z,91.50
2022-12-23T13:30:12.847Z,91.50
2022-12-23T13:32:58.137Z,91.60
2022-12-23T13:35:36.981Z,91.60
2022-12-23T13:38:34.546Z,91.70
2022-12-23T13:41:33.491Z,91.70
2022-12-23T13:44:04.528Z,91.70
2022-12-23T13:46:52.347Z,91.70
2022-12-23T13:49:29.091Z,91.60
2022-12-23T13:52:11.458Z,91.60
2022-12-23T13:54:47.115Z,91.60
2022-12-23T13:57:35.648Z,91.60
2022-12-23T14:00:18.637Z,91.70
2022-12-23T14:03:00.527Z,91.60
2022-12-23T14:05:36.379Z,91.60
2022-12-23T14:08:18.939Z,91.60
2022-12-23T14:11:02.832Z,91.60
2022-12-23T14:13:31.709Z,91.60
2022-12-23T14:16:24.818Z,91.50
2022-12-23T14:19:19.630Z,91.40
2022-12-23T14:22:14.061Z,91.30
2022-12-23T14:24:49.713Z,91.30
2022-12-23T14:27:16.480Z,91.30
2022-12-23T14:30:18.058Z,91.30
2022-12-23T14:33:11.618Z,91.30
2022-12-23T14:35:42.902Z,91.30
2022-12-23T14:38:15.711Z,91.40
2022-12-23T14:40:42.501Z,91.40
2022-12-23T14:43:27.712Z,91.40
2022-12-23T14:46:04.185Z,91.40
2022-12-23T14:48:34.143Z,91.80
2022-12-23T14:51:25.299Z,91.50
2022-12-23T14:53:52.016Z,91.30
2022-12-23T14:56:18.730Z,91.40
2022-12-23T14:58:51.357Z,91.40
2022-12-23T15:01:18.655Z,91.40
2022-12-23T15:03:54.581Z,91.40
2022-12-23T15:06:33.138Z,91.40
2022-12-23T15:09:00.172Z,91.30
2022-12-23T15:11:31.519Z,91.40
2022-12-23T15:13:59.903Z,91.40
2022-12-23T15:16:32.051Z,91.40
2022-12-23T15:19:01.002Z,91.40
2022-12-23T15:21:30.115Z,91.50
2022-12-23T15:23:56.852Z,91.50
2022-12-23T15:26:26.285Z,91.60
2022-12-23T15:28:52.994Z,91.60
2022-12-23T15:31:29.386Z,91.60
2022-12-23T15:34:06.158Z,91.70
2022-12-23T15:36:34.942Z,91.70
2022-12-23T15:39:02.537Z,91.70
2022-12-23T15:41:29.223Z,91.80
2022-12-23T15:43:59.875Z,91.80
2022-12-23T15:46:30.170Z,91.90
2022-12-23T15:48:57.740Z,91.90
2022-12-23T15:51:58.282Z,91.90
2022-12-23T15:54:25.337Z,91.90
2022-12-23T15:56:52.835Z,91.90
2022-12-23T15:59:40.599Z,91.90
2022-12-23T16:02:58.503Z,92.00
2022-12-23T16:05:05.122Z,92.00
2022-12-23T16:07:35.715Z,92.00
2022-12-23T16:10:04.930Z,92.00
2022-12-23T16:12:31.936Z,92.00
2022-12-23T16:14:59.381Z,92.00
2022-12-23T16:17:32.448Z,92.00
2022-12-23T16:20:25.190Z,92.00
2022-12-23T16:22:56.777Z,92.00
2022-12-23T16:25:25.743Z,92.00
2022-12-23T16:28:21.392Z,92.00
2022-12-23T16:30:48.249Z,92.00
2022-12-23T16:33:36.820Z,92.40
2022-12-23T16:36:26.042Z,92.00
2022-12-23T16:38:57.537Z,92.00
2022-12-23T16:41:24.205Z,92.00
2022-12-23T16:43:52.622Z,92.00
2022-12-23T16:46:20.886Z,92.00
2022-12-23T16:49:01.045Z,92.00
2022-12-23T16:51:28.566Z,92.00
2022-12-23T16:53:56.455Z,92.00
2022-12-23T16:56:35.483Z,91.90
2022-12-23T16:59:02.390Z,91.90
2022-12-23T17:01:33.602Z,91.80
2022-12-23T17:04:00.489Z,91.80
2022-12-23T17:06:27.289Z,91.80
2022-12-23T17:08:54.016Z,91.70
2022-12-23T17:11:36.486Z,91.60
2022-12-23T17:14:06.677Z,91.60
2022-12-23T17:16:34.799Z,91.60
2022-12-23T17:19:01.542Z,91.60
2022-12-23T17:21:37.384Z,91.70
2022-12-23T17:24:24.336Z,91.50
2022-12-23T17:26:51.226Z,91.50
2022-12-23T17:29:17.997Z,91.60
2022-12-23T17:31:44.925Z,91.50
2022-12-23T17:34:15.031Z,91.60
2022-12-23T17:36:47.580Z,91.50
2022-12-23T17:39:16.444Z,91.60
2022-12-23T17:41:43.168Z,91.50
2022-12-23T17:44:10.796Z,91.50
2022-12-23T17:46:37.583Z,91.50
2022-12-23T17:49:04.308Z,91.60
2022-12-23T17:51:31.111Z,91.60
2022-12-23T17:53:58.436Z,91.60
2022-12-23T17:56:27.065Z,91.50
2022-12-23T17:58:53.787Z,91.60
2022-12-23T18:01:25.877Z,91.60
2022-12-23T18:03:53.317Z,91.50
2022-12-23T18:06:21.153Z,91.50
2022-12-23T18:08:47.957Z,91.50
2022-12-23T18:11:39.156Z,91.50
2022-12-23T18:14:06.886Z,91.50
2022-12-23T18:16:33.597Z,91.50
2022-12-23T18:19:00.283Z,91.90
2022-12-23T18:21:28.016Z,91.50
2022-12-23T18:23:56.096Z,91.50
2022-12-23T18:26:22.799Z,91.40
2022-12-23T18:28:49.578Z,91.40
2022-12-23T18:31:21.217Z,91.30
2022-12-23T18:33:48.243Z,91.30
2022-12-23T18:36:26.596Z,91.20
2022-12-23T18:38:53.418Z,91.30
2022-12-23T18:41:20.828Z,91.30
2022-12-23T18:43:47.557Z,91.30
2022-12-23T18:46:14.373Z,91.30
2022-12-23T18:48:41.124Z,91.30
2022-12-23T18:51:09.569Z,91.30
2022-12-23T18:53:36.229Z,91.30
2022-12-23T18:56:02.932Z,91.30
2022-12-23T18:58:29.646Z,91.40
2022-12-23T19:00:56.484Z,91.40
2022-12-23T19:03:25.236Z,91.40
2022-12-23T19:05:52.332Z,91.40
2022-12-23T19:08:25.466Z,91.40
2022-12-23T19:10:52.888Z,91.40
2022-12-23T19:13:19.690Z,91.40
2022-12-23T19:15:46.518Z,91.50
2022-12-23T19:18:14.698Z,91.50
2022-12-23T19:20:42.533Z,91.50
2022-12-23T19:23:09.757Z,91.50
2022-12-23T19:25:36.550Z,91.50
2022-12-23T19:28:03.273Z,91.50
2022-12-23T19:30:30.053Z,91.50
2022-12-23T19:32:56.807Z,91.60
2022-12-23T19:35:23.512Z,91.60
2022-12-23T19:37:50.240Z,91.60
2022-12-23T19:40:17.050Z,91.60
2022-12-23T19:42:43.743Z,91.60
2022-12-23T19:45:10.885Z,91.60
2022-12-23T19:47:37.732Z,91.60
2022-12-23T19:50:05.073Z,91.60
2022-12-23T19:52:31.793Z,91.60
2022-12-23T19:54:58.567Z,91.60
2022-12-23T19:57:25.305Z,91.60
2022-12-23T19:59:52.010Z,91.60
2022-12-23T20:02:18.722Z,91.60
2022-12-23T20:04:45.457Z,91.60
2022-12-23T20:07:12.233Z,91.60
2022-12-23T20:09:39.018Z,91.60
2022-12-23T20:12:06.125Z,91.60
2022-12-23T20:14:34.372Z,91.60
2022-12-23T20:17:01.489Z,91.60
2022-12-23T20:19:28.377Z,91.60
2022-12-23T20:21:55.100Z,91.60
2022-12-23T20:24:21.856Z,91.60
2022-12-23T20:26:48.591Z,91.60
2022-12-23T20:29:15.258Z,91.60
2022-12-23T20:31:42.023Z,91.60
2022-12-23T20:34:10.655Z,91.60
2022-12-23T20:36:37.536Z,91.70
2022-12-23T20:39:04.433Z,91.60
2022-12-23T20:41:31.291Z,91.60
2022-12-23T20:44:32.357Z,91.70
2022-12-23T20:46:45.043Z,91.70
2022-12-23T20:49:12.548Z,91.70
2022-12-23T20:51:39.539Z,91.70
2022-12-23T20:54:06.352Z,92.00
2022-12-23T20:56:33.064Z,91.70
2022-12-23T20:58:59.828Z,91.70
2022-12-23T21:01:27.665Z,91.70
2022-12-23T21:03:54.913Z,91.70
2022-12-23T21:06:21.927Z,91.70
2022-12-23T21:08:48.697Z,91.70
2022-12-23T21:11:15.506Z,91.70
2022-12-23T21:13:42.215Z,91.70
2022-12-23T21:16:14.604Z,91.70
2022-12-23T21:18:42.510Z,91.80
2022-12-23T21:21:09.540Z,91.70
2022-12-23T21:23:37.475Z,91.70
2022-12-23T21:26:17.299Z,91.80
2022-12-23T21:28:44.540Z,91.80
2022-12-23T21:31:11.340Z,91.80
2022-12-23T21:33:39.060Z,91.80
2022-12-23T21:36:06.408Z,91.80
2022-12-23T21:38:34.177Z,91.80
2022-12-23T21:41:05.556Z,91.80
2022-12-23T21:43:32.497Z,91.80
2022-12-23T21:46:00.267Z,91.80
2022-12-23T21:48:27.327Z,91.80
2022-12-23T21:50:54.087Z,91.80
2022-12-23T21:53:20.774Z,91.80
2022-12-23T21:55:47.480Z,91.80
2022-12-23T21:58:14.243Z,91.80
2022-12-23T22:00:40.995Z,91.90
2022-12-23T22:03:07.688Z,91.90
2022-12-23T22:05:34.424Z,91.90
2022-12-23T22:08:01.185Z,91.90
2022-12-23T22:10:27.904Z,91.90
2022-12-23T22:12:54.668Z,91.90
2022-12-23T22:15:21.436Z,91.90
2022-12-23T22:17:48.125Z,91.90
2022-12-23T22:20:14.985Z,91.90
2022-12-23T22:22:41.652Z,91.90
2022-12-23T22:25:08.794Z,92.00
2022-12-23T22:27:35.494Z,92.00
2022-12-23T22:30:02.360Z,92.00
2022-12-23T22:32:29.073Z,92.00
2022-12-23T22:34:55.770Z,92.00
2022-12-23T22:37:22.503Z,92.00
2022-12-23T22:39:49.300Z,92.00
2022-12-23T22:42:16.101Z,92.00
2022-12-23T22:44:42.861Z,92.00
2022-12-23T22:47:09.543Z,92.00
2022-12-23T22:49:36.327Z,92.00
2022-12-23T22:52:04.329Z,92.00
2022-12-23T22:54:31.081Z,92.00
2022-12-23T22:56:57.758Z,92.00
2022-12-23T22:59:24.852Z,92.00
2022-12-23T23:01:52.068Z,92.00
2022-12-23T23:04:18.842Z,92.10
2022-12-23T23:06:45.615Z,92.00
2022-12-23T23:09:14.450Z,92.10
2022-12-23T23:11:41.351Z,92.10
2022-12-23T23:14:08.105Z,92.10
2022-12-23T23:16:34.919Z,92.10
2022-12-23T23:19:01.838Z,92.10
2022-12-23T23:21:28.582Z,92.10
2022-12-23T23:23:55.327Z,92.10
2022-12-23T23:26:22.171Z,92.10
2022-12-23T23:28:48.964Z,92.10
2022-12-23T23:34:02.378Z,92.10
2022-12-23T23:36:29.218Z,92.10
2022-12-23T23:38:55.961Z,92.20
2022-12-23T23:41:23.952Z,92.20
2022-12-23T23:43:51.488Z,92.20
2022-12-23T23:46:18.363Z,92.20
2022-12-23T23:48:45.164Z,92.20
2022-12-23T23:51:11.951Z,92.20
2022-12-23T23:53:38.703Z,92.20
2022-12-23T23:56:06.319Z,92.20
2022-12-23T23:58:33.667Z,92.20
